TimeMST,TemperatureF,Dew PointF,Humidity,Sea Level PressureIn,VisibilityMPH,Wind Direction,Wind SpeedMPH,Gust SpeedMPH,PrecipitationIn,Events,Conditions,WindDirDegrees,DateUTC
12:57 AM,51.1,30.9,46,29.96,10.0,SSE,4.6,-,N/A,,Clear,150,2014-01-12 07:57:00
1:57 AM,51.1,30.9,46,29.97,10.0,Calm,Calm,-,N/A,,Clear,0,2014-01-12 08:57:00
2:57 AM,50.0,34.0,54,29.98,10.0,NNE,3.5,-,N/A,,Clear,20,2014-01-12 09:57:00
3:57 AM,52.0,32.0,47,29.96,10.0,ENE,3.5,-,N/A,,Clear,60,2014-01-12 10:57:00
4:57 AM,53.1,32.0,45,29.94,10.0,SE,3.5,-,N/A,,Clear,130,2014-01-12 11:57:00
5:57 AM,51.1,34.0,52,29.96,10.0,NE,5.8,-,N/A,,Mostly Cloudy,50,2014-01-12 12:57:00
6:57 AM,52.0,33.1,49,29.98,10.0,NE,5.8,-,N/A,,Mostly Cloudy,50,2014-01-12 13:57:00
7:57 AM,51.1,33.1,50,30.00,10.0,NNE,9.2,-,N/A,,Mostly Cloudy,30,2014-01-12 14:57:00
8:57 AM,52.0,33.1,49,30.02,10.0,NNE,4.6,-,N/A,,Scattered Clouds,30,2014-01-12 15:57:00
9:57 AM,60.1,33.1,36,30.06,10.0,NE,4.6,-,N/A,,Partly Cloudy,50,2014-01-12 16:57:00
10:57 AM,64.0,33.1,31,30.08,10.0,NE,6.9,-,N/A,,Partly Cloudy,40,2014-01-12 17:57:00
11:57 AM,68.0,34.0,28,30.06,10.0,NE,5.8,-,N/A,,Partly Cloudy,40,2014-01-12 18:57:00
12:57 PM,72.0,33.1,24,30.04,10.0,NW,4.6,-,N/A,,Partly Cloudy,320,2014-01-12 19:57:00
1:57 PM,77.0,30.0,18,30.02,10.0,NNW,13.8,18.4,N/A,,Partly Cloudy,340,2014-01-12 20:57:00
2:57 PM,75.9,28.9,18,30.04,10.0,North,12.7,-,N/A,,Scattered Clouds,350,2014-01-12 21:57:00
3:57 PM,75.9,28.0,17,30.04,10.0,North,11.5,-,N/A,,Mostly Cloudy,350,2014-01-12 22:57:00
4:57 PM,75.0,26.1,16,30.06,10.0,North,13.8,19.6,N/A,,Mostly Cloudy,360,2014-01-12 23:57:00
5:57 PM,71.1,26.1,19,30.08,10.0,North,8.1,-,N/A,,Mostly Cloudy,360,2014-01-13 00:57:00
6:57 PM,66.9,27.0,22,30.10,10.0,North,5.8,-,N/A,,Scattered Clouds,350,2014-01-13 01:57:00
7:57 PM,66.0,28.0,24,30.12,10.0,North,6.9,-,N/A,,Partly Cloudy,360,2014-01-13 02:57:00
8:57 PM,62.1,27.0,26,30.14,10.0,NW,6.9,-,N/A,,Partly Cloudy,320,2014-01-13 03:57:00
9:57 PM,64.0,16.0,16,30.16,10.0,NNW,11.5,-,N/A,,Partly Cloudy,330,2014-01-13 04:57:00
10:57 PM,62.1,14.0,15,30.19,10.0,NNW,8.1,-,N/A,,Clear,330,2014-01-13 05:57:00
11:57 PM,63.0,14.0,15,30.20,10.0,North,8.1,-,N/A,,Clear,360,2014-01-13 06:57:00